Terminal Aerodrome Forecast
Issued by NWS

Home | Current Version | Previous Version | Graphics & Text | Print | Product List | Glossary On
Versions: 1 2 3 4 5 6 7 8 9 10 11 12 13 14 15 16
000
FTUS43 KGRB 261138
TAFATW
TAF
KATW 261138Z 2612/2712 30005KT P6SM SCT025 BKN035
      TEMPO 2612/2613 SCT035
     FM261400 33006KT P6SM SCT028 BKN035
     FM262000 33006KT P6SM SCT045
     FM270100 VRB03KT P6SM SKC
      TEMPO 2708/2712 3SM BR=

USA.gov is the U.S. government's official web portal to all federal, state and local government web resources and services.